sensor_id;sensor_type;location;lat;lon;timestamp;P1;durP1;ratioP1;P2;durP2;ratioP2
22531;SDS011;11432;46.924;7.114;2022-12-07T00:01:28;21.42;;;11.90;;
22531;SDS011;11432;46.924;7.114;2022-12-07T00:03:56;19.97;;;11.53;;
22531;SDS011;11432;46.924;7.114;2022-12-07T00:06:28;17.80;;;11.80;;
22531;SDS011;11432;46.924;7.114;2022-12-07T00:08:54;21.70;;;11.68;;
22531;SDS011;11432;46.924;7.114;2022-12-07T00:11:21;19.20;;;11.73;;
22531;SDS011;11432;46.924;7.114;2022-12-07T00:13:50;19.48;;;11.30;;
22531;SDS011;11432;46.924;7.114;2022-12-07T00:16:22;19.77;;;11.95;;
22531;SDS011;11432;46.924;7.114;2022-12-07T00:18:49;19.33;;;11.63;;
22531;SDS011;11432;46.924;7.114;2022-12-07T00:21:19;19.08;;;11.95;;
22531;SDS011;11432;46.924;7.114;2022-12-07T00:23:47;21.80;;;12.43;;
22531;SDS011;11432;46.924;7.114;2022-12-07T00:26:14;21.33;;;12.48;;
22531;SDS011;11432;46.924;7.114;2022-12-07T00:28:53;21.60;;;12.40;;
22531;SDS011;11432;46.924;7.114;2022-12-07T00:31:22;21.15;;;12.02;;
22531;SDS011;11432;46.924;7.114;2022-12-07T00:33:49;19.83;;;12.10;;
22531;SDS011;11432;46.924;7.114;2022-12-07T00:36:16;20.63;;;12.15;;
22531;SDS011;11432;46.924;7.114;2022-12-07T00:38:43;18.92;;;11.55;;
22531;SDS011;11432;46.924;7.114;2022-12-07T00:41:10;19.95;;;11.70;;
22531;SDS011;11432;46.924;7.114;2022-12-07T00:43:41;21.77;;;12.55;;
22531;SDS011;11432;46.924;7.114;2022-12-07T00:46:08;18.20;;;11.25;;
22531;SDS011;11432;46.924;7.114;2022-12-07T00:48:34;21.52;;;11.10;;
22531;SDS011;11432;46.924;7.114;2022-12-07T00:51:00;21.15;;;12.05;;
22531;SDS011;11432;46.924;7.114;2022-12-07T00:53:26;18.15;;;11.63;;
22531;SDS011;11432;46.924;7.114;2022-12-07T00:55:52;20.35;;;11.63;;
22531;SDS011;11432;46.924;7.114;2022-12-07T00:58:18;18.80;;;11.10;;
22531;SDS011;11432;46.924;7.114;2022-12-07T01:00:44;20.00;;;11.52;;
22531;SDS011;11432;46.924;7.114;2022-12-07T01:03:11;22.60;;;12.10;;
22531;SDS011;11432;46.924;7.114;2022-12-07T01:05:38;20.02;;;11.98;;
22531;SDS011;11432;46.924;7.114;2022-12-07T01:08:04;21.02;;;11.38;;
22531;SDS011;11432;46.924;7.114;2022-12-07T01:10:30;21.00;;;12.23;;
22531;SDS011;11432;46.924;7.114;2022-12-07T01:12:56;19.92;;;11.95;;
22531;SDS011;11432;46.924;7.114;2022-12-07T01:15:22;20.83;;;11.68;;
22531;SDS011;11432;46.924;7.114;2022-12-07T01:17:48;20.15;;;11.77;;
22531;SDS011;11432;46.924;7.114;2022-12-07T01:20:15;21.20;;;11.38;;
22531;SDS011;11432;46.924;7.114;2022-12-07T01:22:41;20.40;;;11.48;;
22531;SDS011;11432;46.924;7.114;2022-12-07T01:25:08;17.95;;;11.23;;
22531;SDS011;11432;46.924;7.114;2022-12-07T01:27:35;18.40;;;10.60;;
22531;SDS011;11432;46.924;7.114;2022-12-07T01:30:03;19.15;;;10.93;;
22531;SDS011;11432;46.924;7.114;2022-12-07T01:32:30;18.23;;;11.05;;
22531;SDS011;11432;46.924;7.114;2022-12-07T01:34:56;20.70;;;11.82;;
22531;SDS011;11432;46.924;7.114;2022-12-07T01:37:21;18.13;;;11.05;;
22531;SDS011;11432;46.924;7.114;2022-12-07T01:39:50;18.95;;;11.35;;
22531;SDS011;11432;46.924;7.114;2022-12-07T01:47:56;21.58;;;12.40;;
22531;SDS011;11432;46.924;7.114;2022-12-07T01:50:24;20.45;;;11.60;;
22531;SDS011;11432;46.924;7.114;2022-12-07T01:52:53;19.73;;;11.68;;
22531;SDS011;11432;46.924;7.114;2022-12-07T01:55:21;22.20;;;11.35;;
22531;SDS011;11432;46.924;7.114;2022-12-07T01:57:47;20.52;;;11.88;;
22531;SDS011;11432;46.924;7.114;2022-12-07T02:00:15;17.20;;;10.95;;
22531;SDS011;11432;46.924;7.114;2022-12-07T02:05:17;20.45;;;11.52;;
22531;SDS011;11432;46.924;7.114;2022-12-07T02:07:43;19.38;;;11.30;;
22531;SDS011;11432;46.924;7.114;2022-12-07T02:10:15;21.83;;;11.50;;
22531;SDS011;11432;46.924;7.114;2022-12-07T02:12:42;19.67;;;11.52;;
22531;SDS011;11432;46.924;7.114;2022-12-07T02:15:10;19.55;;;12.30;;
22531;SDS011;11432;46.924;7.114;2022-12-07T02:28:55;21.65;;;11.98;;
22531;SDS011;11432;46.924;7.114;2022-12-07T02:31:42;19.83;;;11.82;;
22531;SDS011;11432;46.924;7.114;2022-12-07T02:34:20;22.45;;;12.40;;
22531;SDS011;11432;46.924;7.114;2022-12-07T02:36:55;20.33;;;11.90;;
22531;SDS011;11432;46.924;7.114;2022-12-07T02:39:31;21.73;;;12.30;;
22531;SDS011;11432;46.924;7.114;2022-12-07T02:42:19;20.25;;;11.90;;
22531;SDS011;11432;46.924;7.114;2022-12-07T02:44:50;17.58;;;11.18;;
22531;SDS011;11432;46.924;7.114;2022-12-07T02:47:17;19.70;;;11.57;;
22531;SDS011;11432;46.924;7.114;2022-12-07T02:49:45;18.48;;;10.93;;
22531;SDS011;11432;46.924;7.114;2022-12-07T02:52:11;19.42;;;11.80;;
22531;SDS011;11432;46.924;7.114;2022-12-07T02:54:37;18.08;;;10.93;;
22531;SDS011;11432;46.924;7.114;2022-12-07T03:13:03;19.40;;;11.45;;
22531;SDS011;11432;46.924;7.114;2022-12-07T03:15:55;19.25;;;11.05;;
22531;SDS011;11432;46.924;7.114;2022-12-07T03:18:23;19.23;;;11.40;;
22531;SDS011;11432;46.924;7.114;2022-12-07T03:20:53;17.88;;;10.80;;
22531;SDS011;11432;46.924;7.114;2022-12-07T03:23:22;21.98;;;12.25;;
22531;SDS011;11432;46.924;7.114;2022-12-07T03:25:50;18.20;;;11.85;;
22531;SDS011;11432;46.924;7.114;2022-12-07T03:28:22;21.05;;;12.45;;
22531;SDS011;11432;46.924;7.114;2022-12-07T03:33:39;20.88;;;11.90;;
22531;SDS011;11432;46.924;7.114;2022-12-07T03:36:15;19.50;;;12.10;;
22531;SDS011;11432;46.924;7.114;2022-12-07T03:38:55;21.77;;;12.18;;
22531;SDS011;11432;46.924;7.114;2022-12-07T03:41:29;19.23;;;11.80;;
22531;SDS011;11432;46.924;7.114;2022-12-07T03:43:58;17.50;;;11.07;;
22531;SDS011;11432;46.924;7.114;2022-12-07T03:51:52;18.13;;;11.32;;
22531;SDS011;11432;46.924;7.114;2022-12-07T03:54:41;18.67;;;11.52;;
22531;SDS011;11432;46.924;7.114;2022-12-07T03:57:09;18.38;;;10.88;;
22531;SDS011;11432;46.924;7.114;2022-12-07T03:59:36;17.73;;;10.82;;
22531;SDS011;11432;46.924;7.114;2022-12-07T04:02:04;17.80;;;10.48;;
22531;SDS011;11432;46.924;7.114;2022-12-07T04:04:31;20.42;;;11.68;;
22531;SDS011;11432;46.924;7.114;2022-12-07T04:06:58;18.67;;;11.18;;
22531;SDS011;11432;46.924;7.114;2022-12-07T04:09:24;19.80;;;11.13;;
22531;SDS011;11432;46.924;7.114;2022-12-07T04:11:49;17.83;;;11.10;;
22531;SDS011;11432;46.924;7.114;2022-12-07T04:14:15;19.55;;;11.32;;
22531;SDS011;11432;46.924;7.114;2022-12-07T04:16:50;20.42;;;11.70;;
22531;SDS011;11432;46.924;7.114;2022-12-07T04:19:19;18.42;;;11.57;;
22531;SDS011;11432;46.924;7.114;2022-12-07T04:21:46;17.60;;;11.13;;
22531;SDS011;11432;46.924;7.114;2022-12-07T04:24:12;20.05;;;10.93;;
22531;SDS011;11432;46.924;7.114;2022-12-07T04:26:40;19.20;;;12.02;;
22531;SDS011;11432;46.924;7.114;2022-12-07T04:29:06;18.42;;;10.98;;
22531;SDS011;11432;46.924;7.114;2022-12-07T04:31:32;18.83;;;11.25;;
22531;SDS011;11432;46.924;7.114;2022-12-07T04:33:58;18.90;;;11.27;;
22531;SDS011;11432;46.924;7.114;2022-12-07T04:36:23;18.83;;;11.95;;
22531;SDS011;11432;46.924;7.114;2022-12-07T04:38:49;19.38;;;12.07;;
22531;SDS011;11432;46.924;7.114;2022-12-07T04:41:14;19.90;;;12.00;;
22531;SDS011;11432;46.924;7.114;2022-12-07T04:43:40;20.05;;;11.90;;
22531;SDS011;11432;46.924;7.114;2022-12-07T04:46:06;20.55;;;11.90;;
22531;SDS011;11432;46.924;7.114;2022-12-07T04:48:32;19.60;;;11.55;;
22531;SDS011;11432;46.924;7.114;2022-12-07T04:50:57;18.33;;;11.10;;
22531;SDS011;11432;46.924;7.114;2022-12-07T04:53:23;20.00;;;11.85;;
22531;SDS011;11432;46.924;7.114;2022-12-07T04:55:48;19.70;;;11.75;;
22531;SDS011;11432;46.924;7.114;2022-12-07T04:58:14;17.80;;;10.93;;
22531;SDS011;11432;46.924;7.114;2022-12-07T05:00:40;20.10;;;11.95;;
22531;SDS011;11432;46.924;7.114;2022-12-07T05:03:06;22.25;;;11.65;;
22531;SDS011;11432;46.924;7.114;2022-12-07T05:05:31;18.70;;;11.50;;
22531;SDS011;11432;46.924;7.114;2022-12-07T05:07:57;20.15;;;11.43;;
22531;SDS011;11432;46.924;7.114;2022-12-07T05:10:23;19.55;;;12.05;;
22531;SDS011;11432;46.924;7.114;2022-12-07T05:12:49;19.70;;;11.52;;
22531;SDS011;11432;46.924;7.114;2022-12-07T05:15:14;20.27;;;11.88;;
22531;SDS011;11432;46.924;7.114;2022-12-07T05:17:40;19.70;;;11.63;;
22531;SDS011;11432;46.924;7.114;2022-12-07T05:20:06;18.85;;;11.35;;
22531;SDS011;11432;46.924;7.114;2022-12-07T05:22:33;19.98;;;11.55;;
22531;SDS011;11432;46.924;7.114;2022-12-07T05:24:58;22.08;;;12.48;;
22531;SDS011;11432;46.924;7.114;2022-12-07T05:27:24;20.00;;;12.05;;
22531;SDS011;11432;46.924;7.114;2022-12-07T05:29:50;21.15;;;12.75;;
22531;SDS011;11432;46.924;7.114;2022-12-07T05:32:16;21.02;;;11.90;;
22531;SDS011;11432;46.924;7.114;2022-12-07T05:34:42;20.83;;;12.20;;
22531;SDS011;11432;46.924;7.114;2022-12-07T05:37:07;21.75;;;12.18;;
22531;SDS011;11432;46.924;7.114;2022-12-07T05:39:33;21.33;;;11.48;;
22531;SDS011;11432;46.924;7.114;2022-12-07T05:41:59;21.70;;;12.38;;
22531;SDS011;11432;46.924;7.114;2022-12-07T05:44:37;21.40;;;12.27;;
22531;SDS011;11432;46.924;7.114;2022-12-07T05:47:06;21.38;;;11.90;;
22531;SDS011;11432;46.924;7.114;2022-12-07T05:49:32;21.73;;;12.48;;
22531;SDS011;11432;46.924;7.114;2022-12-07T05:51:58;19.15;;;12.00;;
22531;SDS011;11432;46.924;7.114;2022-12-07T05:54:24;22.25;;;12.32;;
22531;SDS011;11432;46.924;7.114;2022-12-07T05:56:50;21.85;;;12.10;;
22531;SDS011;11432;46.924;7.114;2022-12-07T05:59:15;23.00;;;12.07;;
22531;SDS011;11432;46.924;7.114;2022-12-07T06:01:47;20.17;;;11.48;;
22531;SDS011;11432;46.924;7.114;2022-12-07T06:04:17;20.95;;;12.65;;
22531;SDS011;11432;46.924;7.114;2022-12-07T06:06:43;20.95;;;12.55;;
22531;SDS011;11432;46.924;7.114;2022-12-07T06:09:09;22.55;;;12.20;;
22531;SDS011;11432;46.924;7.114;2022-12-07T06:11:35;22.55;;;12.60;;
22531;SDS011;11432;46.924;7.114;2022-12-07T06:14:19;18.52;;;11.52;;
22531;SDS011;11432;46.924;7.114;2022-12-07T06:16:44;19.05;;;11.75;;
22531;SDS011;11432;46.924;7.114;2022-12-07T06:19:10;19.75;;;11.77;;
22531;SDS011;11432;46.924;7.114;2022-12-07T06:21:36;20.02;;;11.77;;
22531;SDS011;11432;46.924;7.114;2022-12-07T06:24:02;19.65;;;11.70;;
22531;SDS011;11432;46.924;7.114;2022-12-07T06:26:27;18.40;;;11.63;;
22531;SDS011;11432;46.924;7.114;2022-12-07T06:28:53;18.38;;;11.68;;
22531;SDS011;11432;46.924;7.114;2022-12-07T06:31:20;19.05;;;11.10;;
22531;SDS011;11432;46.924;7.114;2022-12-07T06:33:46;16.85;;;10.95;;
22531;SDS011;11432;46.924;7.114;2022-12-07T06:36:11;19.55;;;11.27;;
22531;SDS011;11432;46.924;7.114;2022-12-07T06:38:37;19.92;;;11.20;;
22531;SDS011;11432;46.924;7.114;2022-12-07T06:41:03;19.48;;;10.27;;
22531;SDS011;11432;46.924;7.114;2022-12-07T06:43:29;17.23;;;10.27;;
22531;SDS011;11432;46.924;7.114;2022-12-07T06:45:54;19.92;;;10.95;;
22531;SDS011;11432;46.924;7.114;2022-12-07T06:48:20;18.92;;;10.52;;
22531;SDS011;11432;46.924;7.114;2022-12-07T06:50:46;18.05;;;10.50;;
22531;SDS011;11432;46.924;7.114;2022-12-07T06:53:12;16.35;;;9.07;;
22531;SDS011;11432;46.924;7.114;2022-12-07T06:55:38;15.95;;;9.93;;
22531;SDS011;11432;46.924;7.114;2022-12-07T06:58:04;17.13;;;10.05;;
22531;SDS011;11432;46.924;7.114;2022-12-07T07:00:29;16.60;;;9.13;;
22531;SDS011;11432;46.924;7.114;2022-12-07T07:02:56;15.38;;;8.35;;
22531;SDS011;11432;46.924;7.114;2022-12-07T07:05:21;14.88;;;8.35;;
22531;SDS011;11432;46.924;7.114;2022-12-07T07:07:48;13.25;;;8.25;;
22531;SDS011;11432;46.924;7.114;2022-12-07T07:10:14;13.75;;;8.63;;
22531;SDS011;11432;46.924;7.114;2022-12-07T07:12:40;13.20;;;8.45;;
22531;SDS011;11432;46.924;7.114;2022-12-07T07:15:05;15.52;;;8.18;;
22531;SDS011;11432;46.924;7.114;2022-12-07T07:17:31;15.02;;;8.20;;
22531;SDS011;11432;46.924;7.114;2022-12-07T07:19:57;13.07;;;7.32;;
22531;SDS011;11432;46.924;7.114;2022-12-07T07:22:22;13.02;;;7.93;;
22531;SDS011;11432;46.924;7.114;2022-12-07T07:24:48;15.32;;;8.38;;
22531;SDS011;11432;46.924;7.114;2022-12-07T07:27:14;13.50;;;7.88;;
22531;SDS011;11432;46.924;7.114;2022-12-07T07:29:39;14.48;;;8.55;;
22531;SDS011;11432;46.924;7.114;2022-12-07T07:32:05;14.95;;;8.00;;
22531;SDS011;11432;46.924;7.114;2022-12-07T07:34:32;12.95;;;7.97;;
22531;SDS011;11432;46.924;7.114;2022-12-07T07:36:58;15.02;;;8.55;;
22531;SDS011;11432;46.924;7.114;2022-12-07T07:39:23;13.57;;;8.60;;
22531;SDS011;11432;46.924;7.114;2022-12-07T07:41:49;14.40;;;8.43;;
22531;SDS011;11432;46.924;7.114;2022-12-07T07:44:14;13.50;;;8.00;;
22531;SDS011;11432;46.924;7.114;2022-12-07T07:46:40;13.80;;;8.18;;
22531;SDS011;11432;46.924;7.114;2022-12-07T07:49:06;13.60;;;7.47;;
22531;SDS011;11432;46.924;7.114;2022-12-07T07:51:31;12.50;;;7.70;;
22531;SDS011;11432;46.924;7.114;2022-12-07T07:55:37;14.23;;;7.80;;
22531;SDS011;11432;46.924;7.114;2022-12-07T07:58:02;14.25;;;7.88;;
22531;SDS011;11432;46.924;7.114;2022-12-07T08:00:28;13.35;;;8.45;;
22531;SDS011;11432;46.924;7.114;2022-12-07T08:02:53;13.20;;;8.18;;
22531;SDS011;11432;46.924;7.114;2022-12-07T08:05:19;13.25;;;8.27;;
22531;SDS011;11432;46.924;7.114;2022-12-07T08:07:45;12.23;;;7.93;;
22531;SDS011;11432;46.924;7.114;2022-12-07T08:10:11;13.00;;;8.68;;
22531;SDS011;11432;46.924;7.114;2022-12-07T08:12:38;13.98;;;8.07;;
22531;SDS011;11432;46.924;7.114;2022-12-07T08:15:26;14.40;;;8.68;;
22531;SDS011;11432;46.924;7.114;2022-12-07T08:17:53;11.63;;;8.52;;
22531;SDS011;11432;46.924;7.114;2022-12-07T08:20:19;13.63;;;8.48;;
22531;SDS011;11432;46.924;7.114;2022-12-07T08:22:45;13.80;;;8.52;;
22531;SDS011;11432;46.924;7.114;2022-12-07T08:25:10;13.52;;;8.07;;
22531;SDS011;11432;46.924;7.114;2022-12-07T08:27:36;13.70;;;8.48;;
22531;SDS011;11432;46.924;7.114;2022-12-07T08:30:02;16.60;;;9.07;;
22531;SDS011;11432;46.924;7.114;2022-12-07T08:32:28;13.68;;;8.15;;
22531;SDS011;11432;46.924;7.114;2022-12-07T08:34:53;11.93;;;7.53;;
22531;SDS011;11432;46.924;7.114;2022-12-07T08:37:19;13.32;;;7.88;;
22531;SDS011;11432;46.924;7.114;2022-12-07T08:39:44;15.60;;;9.07;;
22531;SDS011;11432;46.924;7.114;2022-12-07T08:42:10;16.50;;;8.90;;
22531;SDS011;11432;46.924;7.114;2022-12-07T08:44:35;16.95;;;9.80;;
22531;SDS011;11432;46.924;7.114;2022-12-07T08:47:02;16.35;;;9.05;;
22531;SDS011;11432;46.924;7.114;2022-12-07T08:49:32;13.80;;;8.82;;
22531;SDS011;11432;46.924;7.114;2022-12-07T08:52:03;18.50;;;9.43;;
22531;SDS011;11432;46.924;7.114;2022-12-07T08:54:29;16.55;;;9.70;;
22531;SDS011;11432;46.924;7.114;2022-12-07T08:56:55;15.32;;;9.27;;
22531;SDS011;11432;46.924;7.114;2022-12-07T08:59:21;18.40;;;9.73;;
22531;SDS011;11432;46.924;7.114;2022-12-07T09:01:48;20.15;;;9.05;;
22531;SDS011;11432;46.924;7.114;2022-12-07T09:04:13;17.38;;;10.05;;
22531;SDS011;11432;46.924;7.114;2022-12-07T09:06:40;18.85;;;9.77;;
22531;SDS011;11432;46.924;7.114;2022-12-07T09:09:06;19.38;;;9.43;;
22531;SDS011;11432;46.924;7.114;2022-12-07T09:11:33;18.58;;;9.90;;
22531;SDS011;11432;46.924;7.114;2022-12-07T09:13:58;17.83;;;10.45;;
22531;SDS011;11432;46.924;7.114;2022-12-07T09:16:24;17.95;;;9.80;;
22531;SDS011;11432;46.924;7.114;2022-12-07T09:18:50;19.92;;;10.43;;
22531;SDS011;11432;46.924;7.114;2022-12-07T09:21:15;19.95;;;10.23;;
22531;SDS011;11432;46.924;7.114;2022-12-07T09:23:41;17.55;;;9.55;;
22531;SDS011;11432;46.924;7.114;2022-12-07T09:26:07;21.40;;;10.57;;
22531;SDS011;11432;46.924;7.114;2022-12-07T09:28:33;21.10;;;11.15;;
22531;SDS011;11432;46.924;7.114;2022-12-07T09:30:59;16.67;;;10.10;;
22531;SDS011;11432;46.924;7.114;2022-12-07T09:33:25;17.45;;;10.48;;
22531;SDS011;11432;46.924;7.114;2022-12-07T09:35:51;18.98;;;10.02;;
22531;SDS011;11432;46.924;7.114;2022-12-07T09:38:17;18.52;;;10.23;;
22531;SDS011;11432;46.924;7.114;2022-12-07T09:40:44;18.45;;;10.18;;
22531;SDS011;11432;46.924;7.114;2022-12-07T09:43:19;20.17;;;10.40;;
22531;SDS011;11432;46.924;7.114;2022-12-07T09:45:47;17.67;;;10.05;;
22531;SDS011;11432;46.924;7.114;2022-12-07T09:48:17;19.95;;;10.85;;
22531;SDS011;11432;46.924;7.114;2022-12-07T09:50:44;17.75;;;10.63;;
22531;SDS011;11432;46.924;7.114;2022-12-07T09:53:14;20.15;;;11.27;;
22531;SDS011;11432;46.924;7.114;2022-12-07T09:55:51;17.55;;;9.88;;
22531;SDS011;11432;46.924;7.114;2022-12-07T09:58:19;17.70;;;10.02;;
22531;SDS011;11432;46.924;7.114;2022-12-07T10:00:48;17.35;;;10.25;;
22531;SDS011;11432;46.924;7.114;2022-12-07T10:03:15;18.83;;;10.68;;
22531;SDS011;11432;46.924;7.114;2022-12-07T10:05:45;16.33;;;9.82;;
22531;SDS011;11432;46.924;7.114;2022-12-07T10:08:13;15.18;;;9.25;;
22531;SDS011;11432;46.924;7.114;2022-12-07T10:10:41;19.30;;;11.07;;
22531;SDS011;11432;46.924;7.114;2022-12-07T10:13:08;16.98;;;10.13;;
22531;SDS011;11432;46.924;7.114;2022-12-07T10:15:49;18.15;;;10.02;;
22531;SDS011;11432;46.924;7.114;2022-12-07T10:21:03;19.58;;;9.57;;
22531;SDS011;11432;46.924;7.114;2022-12-07T10:23:41;18.50;;;10.35;;
22531;SDS011;11432;46.924;7.114;2022-12-07T10:29:16;18.65;;;10.13;;
22531;SDS011;11432;46.924;7.114;2022-12-07T10:31:45;21.33;;;11.13;;
22531;SDS011;11432;46.924;7.114;2022-12-07T10:34:25;20.63;;;10.30;;
22531;SDS011;11432;46.924;7.114;2022-12-07T10:37:07;18.88;;;11.00;;
22531;SDS011;11432;46.924;7.114;2022-12-07T10:42:27;16.50;;;10.03;;
22531;SDS011;11432;46.924;7.114;2022-12-07T11:15:16;22.88;;;11.43;;
22531;SDS011;11432;46.924;7.114;2022-12-07T11:18:09;23.15;;;12.07;;
22531;SDS011;11432;46.924;7.114;2022-12-07T11:26:01;21.63;;;12.63;;
22531;SDS011;11432;46.924;7.114;2022-12-07T11:37:05;24.13;;;12.48;;
22531;SDS011;11432;46.924;7.114;2022-12-07T11:39:40;27.67;;;13.63;;
22531;SDS011;11432;46.924;7.114;2022-12-07T11:42:23;24.90;;;11.85;;
22531;SDS011;11432;46.924;7.114;2022-12-07T11:47:35;26.08;;;13.95;;
22531;SDS011;11432;46.924;7.114;2022-12-07T12:04:07;23.50;;;13.15;;
22531;SDS011;11432;46.924;7.114;2022-12-07T12:06:47;27.13;;;14.20;;
22531;SDS011;11432;46.924;7.114;2022-12-07T12:09:16;29.15;;;14.57;;
22531;SDS011;11432;46.924;7.114;2022-12-07T12:17:23;26.65;;;13.57;;
22531;SDS011;11432;46.924;7.114;2022-12-07T12:20:05;23.80;;;13.40;;
22531;SDS011;11432;46.924;7.114;2022-12-07T12:22:53;24.90;;;13.32;;
22531;SDS011;11432;46.924;7.114;2022-12-07T12:33:30;22.73;;;12.70;;
22531;SDS011;11432;46.924;7.114;2022-12-07T12:36:18;22.40;;;11.73;;
22531;SDS011;11432;46.924;7.114;2022-12-07T12:38:50;23.33;;;12.32;;
22531;SDS011;11432;46.924;7.114;2022-12-07T12:47:01;23.60;;;11.98;;
22531;SDS011;11432;46.924;7.114;2022-12-07T12:49:33;22.52;;;12.27;;
22531;SDS011;11432;46.924;7.114;2022-12-07T12:52:27;23.27;;;12.52;;
22531;SDS011;11432;46.924;7.114;2022-12-07T12:55:13;23.10;;;12.48;;
22531;SDS011;11432;46.924;7.114;2022-12-07T12:57:46;20.10;;;10.70;;
22531;SDS011;11432;46.924;7.114;2022-12-07T13:00:30;23.70;;;11.30;;
22531;SDS011;11432;46.924;7.114;2022-12-07T13:02:56;23.30;;;11.88;;
22531;SDS011;11432;46.924;7.114;2022-12-07T13:05:28;26.70;;;13.35;;
22531;SDS011;11432;46.924;7.114;2022-12-07T13:07:59;24.00;;;11.88;;
22531;SDS011;11432;46.924;7.114;2022-12-07T13:10:48;21.38;;;12.27;;
22531;SDS011;11432;46.924;7.114;2022-12-07T13:23:19;23.83;;;11.77;;
22531;SDS011;11432;46.924;7.114;2022-12-07T13:31:35;23.35;;;12.02;;
22531;SDS011;11432;46.924;7.114;2022-12-07T13:36:58;23.02;;;12.90;;
22531;SDS011;11432;46.924;7.114;2022-12-07T13:39:35;21.48;;;11.98;;
22531;SDS011;11432;46.924;7.114;2022-12-07T13:42:29;24.30;;;11.75;;
22531;SDS011;11432;46.924;7.114;2022-12-07T13:44:57;23.98;;;12.50;;
22531;SDS011;11432;46.924;7.114;2022-12-07T13:49:57;23.67;;;12.77;;
22531;SDS011;11432;46.924;7.114;2022-12-07T13:52:24;25.15;;;13.15;;
22531;SDS011;11432;46.924;7.114;2022-12-07T13:57:32;22.73;;;12.32;;
22531;SDS011;11432;46.924;7.114;2022-12-07T14:00:00;24.60;;;12.35;;
22531;SDS011;11432;46.924;7.114;2022-12-07T14:02:31;22.88;;;11.55;;
22531;SDS011;11432;46.924;7.114;2022-12-07T14:05:14;20.65;;;10.85;;
22531;SDS011;11432;46.924;7.114;2022-12-07T14:10:22;23.05;;;11.27;;
22531;SDS011;11432;46.924;7.114;2022-12-07T14:12:50;17.58;;;10.30;;
22531;SDS011;11432;46.924;7.114;2022-12-07T14:15:19;17.17;;;9.48;;
22531;SDS011;11432;46.924;7.114;2022-12-07T14:17:51;15.00;;;8.68;;
22531;SDS011;11432;46.924;7.114;2022-12-07T14:20:51;19.08;;;9.80;;
22531;SDS011;11432;46.924;7.114;2022-12-07T14:23:25;15.95;;;9.15;;
22531;SDS011;11432;46.924;7.114;2022-12-07T14:25:52;15.65;;;8.40;;
22531;SDS011;11432;46.924;7.114;2022-12-07T14:28:25;17.38;;;9.35;;
22531;SDS011;11432;46.924;7.114;2022-12-07T14:30:51;15.30;;;8.43;;
22531;SDS011;11432;46.924;7.114;2022-12-07T14:33:16;13.15;;;8.00;;
22531;SDS011;11432;46.924;7.114;2022-12-07T14:35:43;12.18;;;7.35;;
22531;SDS011;11432;46.924;7.114;2022-12-07T14:38:08;15.50;;;8.43;;
22531;SDS011;11432;46.924;7.114;2022-12-07T14:40:34;17.05;;;8.32;;
22531;SDS011;11432;46.924;7.114;2022-12-07T14:43:01;15.50;;;8.40;;
22531;SDS011;11432;46.924;7.114;2022-12-07T14:45:29;16.00;;;8.00;;
22531;SDS011;11432;46.924;7.114;2022-12-07T14:47:55;14.15;;;8.73;;
22531;SDS011;11432;46.924;7.114;2022-12-07T14:50:20;18.90;;;9.60;;
22531;SDS011;11432;46.924;7.114;2022-12-07T14:52:50;16.55;;;8.45;;
22531;SDS011;11432;46.924;7.114;2022-12-07T14:55:22;16.17;;;8.77;;
22531;SDS011;11432;46.924;7.114;2022-12-07T14:57:50;15.40;;;8.65;;
22531;SDS011;11432;46.924;7.114;2022-12-07T15:00:17;17.15;;;9.18;;
22531;SDS011;11432;46.924;7.114;2022-12-07T15:02:44;16.63;;;8.98;;
22531;SDS011;11432;46.924;7.114;2022-12-07T15:05:10;17.55;;;9.27;;
22531;SDS011;11432;46.924;7.114;2022-12-07T15:07:36;15.93;;;9.68;;
22531;SDS011;11432;46.924;7.114;2022-12-07T15:10:02;17.75;;;9.23;;
22531;SDS011;11432;46.924;7.114;2022-12-07T15:12:28;17.67;;;10.00;;
22531;SDS011;11432;46.924;7.114;2022-12-07T15:14:54;16.17;;;9.85;;
22531;SDS011;11432;46.924;7.114;2022-12-07T15:17:19;16.67;;;9.60;;
22531;SDS011;11432;46.924;7.114;2022-12-07T15:19:45;16.80;;;8.85;;
22531;SDS011;11432;46.924;7.114;2022-12-07T15:22:10;18.92;;;8.55;;
22531;SDS011;11432;46.924;7.114;2022-12-07T15:24:37;15.18;;;9.68;;
22531;SDS011;11432;46.924;7.114;2022-12-07T15:27:03;14.02;;;8.35;;
22531;SDS011;11432;46.924;7.114;2022-12-07T15:29:28;17.55;;;9.60;;
22531;SDS011;11432;46.924;7.114;2022-12-07T15:31:54;14.93;;;9.20;;
22531;SDS011;11432;46.924;7.114;2022-12-07T15:34:20;19.05;;;9.68;;
22531;SDS011;11432;46.924;7.114;2022-12-07T15:36:46;16.73;;;9.77;;
22531;SDS011;11432;46.924;7.114;2022-12-07T15:39:12;18.60;;;9.75;;
22531;SDS011;11432;46.924;7.114;2022-12-07T15:41:37;18.63;;;10.07;;
22531;SDS011;11432;46.924;7.114;2022-12-07T15:44:03;17.38;;;8.98;;
22531;SDS011;11432;46.924;7.114;2022-12-07T15:46:47;15.65;;;9.45;;
22531;SDS011;11432;46.924;7.114;2022-12-07T15:49:17;15.95;;;9.48;;
22531;SDS011;11432;46.924;7.114;2022-12-07T15:51:44;14.52;;;8.90;;
22531;SDS011;11432;46.924;7.114;2022-12-07T15:54:11;14.18;;;9.20;;
22531;SDS011;11432;46.924;7.114;2022-12-07T15:56:43;15.50;;;8.77;;
22531;SDS011;11432;46.924;7.114;2022-12-07T15:59:09;14.68;;;8.73;;
22531;SDS011;11432;46.924;7.114;2022-12-07T16:01:34;19.42;;;8.52;;
22531;SDS011;11432;46.924;7.114;2022-12-07T16:04:00;15.75;;;9.02;;
22531;SDS011;11432;46.924;7.114;2022-12-07T16:06:26;14.00;;;8.75;;
22531;SDS011;11432;46.924;7.114;2022-12-07T16:08:51;15.80;;;9.40;;
22531;SDS011;11432;46.924;7.114;2022-12-07T16:11:17;16.10;;;8.88;;
22531;SDS011;11432;46.924;7.114;2022-12-07T16:13:43;18.48;;;10.00;;
22531;SDS011;11432;46.924;7.114;2022-12-07T16:16:12;17.48;;;9.13;;
22531;SDS011;11432;46.924;7.114;2022-12-07T16:18:39;16.85;;;9.25;;
22531;SDS011;11432;46.924;7.114;2022-12-07T16:21:06;15.35;;;9.65;;
22531;SDS011;11432;46.924;7.114;2022-12-07T16:23:32;15.93;;;9.15;;
22531;SDS011;11432;46.924;7.114;2022-12-07T16:28:53;19.63;;;10.35;;
22531;SDS011;11432;46.924;7.114;2022-12-07T16:31:21;18.08;;;9.48;;
22531;SDS011;11432;46.924;7.114;2022-12-07T16:33:52;17.40;;;10.30;;
22531;SDS011;11432;46.924;7.114;2022-12-07T16:36:19;18.70;;;10.48;;
22531;SDS011;11432;46.924;7.114;2022-12-07T16:38:47;14.90;;;9.23;;
22531;SDS011;11432;46.924;7.114;2022-12-07T16:41:13;16.73;;;10.38;;
22531;SDS011;11432;46.924;7.114;2022-12-07T16:43:39;18.02;;;10.60;;
22531;SDS011;11432;46.924;7.114;2022-12-07T16:46:05;18.42;;;10.30;;
22531;SDS011;11432;46.924;7.114;2022-12-07T16:48:30;18.55;;;10.48;;
22531;SDS011;11432;46.924;7.114;2022-12-07T16:50:56;18.73;;;10.02;;
22531;SDS011;11432;46.924;7.114;2022-12-07T16:53:22;20.08;;;11.13;;
22531;SDS011;11432;46.924;7.114;2022-12-07T16:55:49;18.55;;;10.85;;
22531;SDS011;11432;46.924;7.114;2022-12-07T16:58:15;16.50;;;10.23;;
22531;SDS011;11432;46.924;7.114;2022-12-07T17:00:42;17.48;;;10.45;;
22531;SDS011;11432;46.924;7.114;2022-12-07T17:03:08;19.08;;;10.38;;
22531;SDS011;11432;46.924;7.114;2022-12-07T17:05:38;16.95;;;10.30;;
22531;SDS011;11432;46.924;7.114;2022-12-07T17:08:05;18.10;;;10.40;;
22531;SDS011;11432;46.924;7.114;2022-12-07T17:10:32;19.95;;;11.18;;
22531;SDS011;11432;46.924;7.114;2022-12-07T17:13:00;19.08;;;11.48;;
22531;SDS011;11432;46.924;7.114;2022-12-07T17:15:26;20.45;;;11.40;;
22531;SDS011;11432;46.924;7.114;2022-12-07T17:17:54;19.98;;;11.13;;